• Join FlightAware (Why Join?)
  • Login
  • US Flag 
01:04AM EDT


 

Airport Tracker/Info


-or-


 

Live Flight TrackerFlight Track Log ✈ DAL6068 ✈ 27-Jun-2013 ✈ KDTW - KRDU

Flight Track Log - Related Links

Times and Time Zones

All times are in EDT time to prevent confusion due to time zone crossing. See the DAL6068 flight status page for this flight to view local times or setup timezone preferences in your user account.

Time Position Orientation Groundspeed Altitude Reporting Facility
EDT Latitude Longitude Course Direction KTS MPH feet Rate Location/Type
02:03PM 42.1953 -83.3581 90° East 165 190 1,300  Level Cleveland Center
02:04PM 42.1575 -83.3731 196° South 197 227 3,000 2,040 Climbing Cleveland Center
02:05PM 42.1008 -83.3903 193° South 224 258 5,100 2,160 Climbing Cleveland Center
02:06PM 42.1272 -82.7920 109° East  Level FlightAware Approximate
02:06PM 42.0686 -83.3328 127° Southeast 221 254 7,500  Level Cleveland Center
02:07PM 42.1058 -82.6524 98° East  Level FlightAware Approximate
02:07PM 42.0753 -83.2267 85° East 270 311 9,300  Level Cleveland Center
02:08PM 42.0833 -82.5136 90° East  Level FlightAware Approximate
02:08PM 42.0736 -83.1175 91° East 319 367 10,000  Level Cleveland Center
02:09PM 42.0764 -82.9917 88° East 330 380 11,600 1,620 Climbing Cleveland Center
02:10PM 42.0792 -82.8633 88° East 335 386 13,300 1,620 Climbing Cleveland Center
02:11PM 42.0817 -82.7317 88° East 340 391 14,900 1,320 Climbing Cleveland Center
02:12PM 42.0839 -82.5975 89° East 347 399 16,000 1,140 Climbing Cleveland Center
02:13PM 42.0842 -82.4606 90° East 354 407 17,200 1,260 Climbing Cleveland Center
02:14PM 42.0614 -82.3200 102° East 371 427 18,600 1,260 Climbing Cleveland Center
02:15PM 42.0406 -82.1767 101° East 376 433 19,800 1,200 Climbing Cleveland Center
02:16PM 41.9944 -82.0444 115° Southeast 387 445 21,000 1,200 Climbing Cleveland Center
02:17PM 41.9039 -81.9531 143° Southeast 387 445 22,200 1,140 Climbing Cleveland Center
02:18PM 41.8028 -81.8561 144° Southeast 399 459 23,300 1,020 Climbing Cleveland Center
02:19PM 41.7078 -81.7681 145° Southeast 411 473 24,300 960 Climbing Cleveland Center
02:20PM 41.6128 -81.6775 145° Southeast 422 486 25,300 960 Climbing Cleveland Center
02:21PM 41.5178 -81.5869 144° Southeast 422 486 26,300 960 Climbing Cleveland Center
02:22PM 41.4206 -81.4969 145° Southeast 422 486 27,300 840 Climbing Cleveland Center
02:23PM 41.3442 -81.4211 143° Southeast 422 486 28,000 900 Climbing Cleveland Center
02:24PM 41.2322 -81.3203 146° Southeast 433 498 29,100 1,020 Climbing Cleveland Center
02:25PM 41.1328 -81.2256 144° Southeast 438 504 30,100 900 Climbing Cleveland Center
02:26PM 41.0203 -81.1719 160° South 428 493 31,000 900 Climbing Cleveland Center
02:27PM 40.8933 -81.1269 165° South 433 498 32,000 900 Climbing Cleveland Center
02:28PM 40.7747 -81.0847 165° South 439 505 32,900 480 Climbing Cleveland Center
02:29PM 40.6583 -81.0403 164° South 439 505 33,000  Climbing Cleveland Center
02:30PM 40.5333 -80.9956 165° South 444 511 33,000  Level Cleveland Center
02:31PM 40.4083 -80.9511 165° South 456 525 33,000  Level Cleveland Center
02:32PM 40.2856 -80.9097 166° South 456 525 33,000  Level Cleveland Center
02:33PM 40.1606 -80.8656 165° South 461 531 33,000  Level Cleveland Center
02:34PM 40.0356 -80.8217 165° South 461 531 33,000  Level Cleveland Center
02:35PM 39.9192 -80.7508 155° Southeast 461 531 33,000  Level Cleveland Center
02:36PM 39.8192 -80.6831 152° Southeast 461 531 33,000  Level Cleveland Center
02:37PM 39.7086 -80.6128 154° Southeast 450 518 33,000  Level Cleveland Center
02:38PM 39.6003 -80.5400 153° Southeast 445 512 33,000  Level Cleveland Center
02:40PM 39.3314 -80.3681 154° Southeast 436 502 33,000  Level Washington Center
02:41PM 39.2197 -80.2936 153° Southeast 449 517 33,000  Level Washington Center
02:42PM 39.1100 -80.2197 152° Southeast 449 517 33,000  Level Washington Center
02:43PM 38.9956 -80.1589 158° South 449 517 33,000  Level Washington Center
02:44PM 38.8831 -80.1039 159° South 449 517 33,000 -60 Level Washington Center
02:45PM 38.7619 -80.1019 179° South 432 497 32,900 -660 Descending Washington Center
02:46PM 38.6369 -80.0994 179° South 437 503 31,700 -1,320 Descending Washington Center
02:47PM 38.5014 -80.0992 180° South 445 512 30,300 -900 Descending Washington Center
02:48PM 38.3786 -80.0944 178° South 450 518 30,000 -300 Descending Washington Center
02:49PM 38.2514 -80.0947 180° South 455 524 29,800 -780 Descending Washington Center
02:50PM 38.1347 -80.0903 178° South 465 535 28,500 -1,320 Descending Washington Center
02:51PM 38.0036 -80.0878 179° South 470 541 27,200 -780 Descending Washington Center
02:52PM 37.8700 -80.0875 180° South 476 548 27,000 -120 Descending Washington Center
02:53PM 37.7242 -80.0814 178° South 476 548 27,000  Level Washington Center
02:54PM 37.5928 -80.0817 180° South 476 548 27,000 -480 Level Washington Center
02:55PM 37.4594 -80.0789 179° South 476 548 26,100 -1,020 Descending Washington Center
02:56PM 37.3419 -80.0406 165° South 476 548 25,100 -1,020 Descending Washington Center
02:57PM 37.2461 -79.9231 136° Southeast 457 526 24,100 -960 Descending Washington Center
02:58PM 37.1631 -79.7931 129° Southeast 457 526 23,200 -1,080 Descending Washington Center
02:59PM 37.0744 -79.6450 127° Southeast 463 533 22,000 -1,140 Descending Washington Center
03:00PM 36.9931 -79.5186 129° Southeast 468 539 21,000 -1,020 Descending Washington Center
03:01PM 36.9156 -79.3950 128° Southeast 468 539 20,100 -960 Descending Washington Center
03:02PM 36.8481 -79.2881 128° Southeast 452 520 19,100 -1,380 Descending Washington Center
03:03PM 36.7806 -79.1783 128° Southeast 426 490 17,400 -1,800 Descending Washington Center
03:04PM 36.7147 -79.0769 129° Southeast 396 456 15,500 -2,100 Descending Washington Center
03:05PM 36.6269 -79.0056 147° Southeast 347 399 13,300 -2,460 Descending Washington Center
03:06PM 36.5794 -78.9881 164° South 335 386 11,900 -2,340 Descending Washington Center
03:06PM 36.5361 -78.9758 167° South 333 383 11,000 -1,800 Descending Washington Center
03:07PM 36.4883 -78.9661 171° South 339 390 10,100 -1,140 Descending Washington Center
03:07PM 36.4450 -78.9511 164° South 343 395 9,900 -1,020 Descending Washington Center
03:08PM 36.4036 -78.9367 164° South 302 348 9,100 -1,500 Descending Washington Center
03:08PM 36.3667 -78.9092 149° Southeast 318 366 8,400 -1,020 Descending Washington Center
03:09PM 36.3242 -78.8686 142° Southeast 294 338 8,000 -300 Descending Washington Center
03:10PM 36.2586 -78.8169 148° Southeast 284 327 8,000 -540 Level Washington Center
03:11PM 36.1997 -78.7631 144° Southeast 275 316 7,000 -1,200 Descending Washington Center
03:12PM 36.1403 -78.7169 148° Southeast 265 305 5,800 -1,320 Descending Washington Center
03:13PM 36.0700 -78.6936 165° South 241 277 4,400 -1,440 Descending Washington Center
03:14PM 36.0014 -78.6858 175° South 231 266 2,800 -1,440 Descending Washington Center